Flugplatz Segelflugplatz Essweiler (UL)

Hier findest Du alle Informationen zum Flugplatz Segelflugplatz Essweiler (UL).

Informationen für Piloten zum Flugplatz Segelflugplatz Essweiler

Hier findest Du alle relevanten Informationen, die Du als Pilot benötigst, um Segelflugplatz Essweiler anzufliegen.

Flugplatz: Segelflugplatz Essweiler ICAO-Code: UL Flugplatz
Frequenz Turm: 129,975 Mhz GAFOR Gebiet: 44
Frequenz Ground: 129,975 Mhz Mogas: ja
Platzrunde: SO 2000 ft Landegebühr: 0 €
Platzhöhe: Sunrise: 06:49 Uhr UTC
Pisten: 05/23 - 1000 m x 80 m, GRAS Sunset: 15:41 Uhr UTC

Flugwetter am Flugplatz Segelflugplatz Essweiler

Die METAR Information stammen aus EDRZ (41.31 km entfernt).

METAR Code:
2014/11/28 14:50
EDRZ 281450Z 06008KT 030V100 9000 FEW009 04/02 Q1008

Flugschulen am Flugplatz Segelflugplatz Essweiler

Am Flugplatz Segelflugplatz Essweiler gibt es leider keine Flugschule.

Benachbarte Flugplätze und Flugschulen

Es gibt 20 weitere Flugplätze in einem Umkreis von 50 km um den Flugplatz Segelflugplatz Essweiler.

Jetzt anmelden

Passwort vergessen

Anzeige: Skymap
Umfrage Archiv

Lasst Ihr Euch bei Überlandflügen von FIS begleiten?

Ja, immer!
50 %
Ja, unregelmäßig!
28 %
Ja, aber nur selten!
20 %
Nein, nie!
2 %
Stimmen: 50 | Diskussion
Anzeige: Roland Aircraft
Statistik Alle Mitglieder

Aktuell sind 38 Besucher online, davon 1 Mitglied und 37 Gäste.


Mitglieder online:
Chris_EDNC 

Anzeige: VFR Sprechfunk Simulator


Anzeige: Pocket FMS